sensor_id;sensor_type;location;lat;lon;timestamp;temperature;humidity
17948;DHT22;9099;47.958;11.366;2023-05-07T00:02:25;14.20;99.90
17948;DHT22;9099;47.958;11.366;2023-05-07T00:04:52;14.20;99.90
17948;DHT22;9099;47.958;11.366;2023-05-07T00:07:19;14.20;99.90
17948;DHT22;9099;47.958;11.366;2023-05-07T00:09:46;14.20;99.90
17948;DHT22;9099;47.958;11.366;2023-05-07T00:12:13;14.20;99.90
17948;DHT22;9099;47.958;11.366;2023-05-07T00:14:39;14.20;99.90
17948;DHT22;9099;47.958;11.366;2023-05-07T00:17:08;14.20;99.90
17948;DHT22;9099;47.958;11.366;2023-05-07T00:19:34;14.20;99.90
17948;DHT22;9099;47.958;11.366;2023-05-07T00:22:01;14.20;99.90
17948;DHT22;9099;47.958;11.366;2023-05-07T00:24:28;14.30;99.90
17948;DHT22;9099;47.958;11.366;2023-05-07T00:26:55;14.30;99.90
17948;DHT22;9099;47.958;11.366;2023-05-07T00:29:23;14.20;99.90
17948;DHT22;9099;47.958;11.366;2023-05-07T00:31:50;14.10;99.90
17948;DHT22;9099;47.958;11.366;2023-05-07T00:34:20;14.00;99.90
17948;DHT22;9099;47.958;11.366;2023-05-07T00:36:47;14.00;99.90
17948;DHT22;9099;47.958;11.366;2023-05-07T00:39:14;14.00;99.90
17948;DHT22;9099;47.958;11.366;2023-05-07T00:41:41;14.00;99.90
17948;DHT22;9099;47.958;11.366;2023-05-07T00:44:08;13.90;99.90
17948;DHT22;9099;47.958;11.366;2023-05-07T00:46:35;13.80;99.90
17948;DHT22;9099;47.958;11.366;2023-05-07T00:49:02;13.80;99.90
17948;DHT22;9099;47.958;11.366;2023-05-07T00:51:31;13.80;99.90
17948;DHT22;9099;47.958;11.366;2023-05-07T00:54:00;13.80;99.90
17948;DHT22;9099;47.958;11.366;2023-05-07T00:56:28;13.80;99.90
17948;DHT22;9099;47.958;11.366;2023-05-07T00:58:55;13.80;99.90
17948;DHT22;9099;47.958;11.366;2023-05-07T01:01:22;13.80;99.90
17948;DHT22;9099;47.958;11.366;2023-05-07T01:03:49;13.80;99.90
17948;DHT22;9099;47.958;11.366;2023-05-07T01:06:16;13.80;99.90
17948;DHT22;9099;47.958;11.366;2023-05-07T01:08:45;13.90;99.90
17948;DHT22;9099;47.958;11.366;2023-05-07T01:11:12;13.90;99.90
17948;DHT22;9099;47.958;11.366;2023-05-07T01:13:40;13.90;99.90
17948;DHT22;9099;47.958;11.366;2023-05-07T01:16:09;13.90;99.90
17948;DHT22;9099;47.958;11.366;2023-05-07T01:18:36;13.90;99.90
17948;DHT22;9099;47.958;11.366;2023-05-07T01:21:04;14.00;99.90
17948;DHT22;9099;47.958;11.366;2023-05-07T01:23:33;14.00;99.90
17948;DHT22;9099;47.958;11.366;2023-05-07T01:26:01;13.90;99.90
17948;DHT22;9099;47.958;11.366;2023-05-07T01:28:28;13.80;99.90
17948;DHT22;9099;47.958;11.366;2023-05-07T01:31:02;13.80;99.90
17948;DHT22;9099;47.958;11.366;2023-05-07T01:33:32;13.70;99.90
17948;DHT22;9099;47.958;11.366;2023-05-07T01:35:59;13.60;99.90
17948;DHT22;9099;47.958;11.366;2023-05-07T01:38:29;13.60;99.90
17948;DHT22;9099;47.958;11.366;2023-05-07T01:40:58;13.60;99.90
17948;DHT22;9099;47.958;11.366;2023-05-07T01:43:25;13.60;99.90
17948;DHT22;9099;47.958;11.366;2023-05-07T01:45:52;13.50;99.90
17948;DHT22;9099;47.958;11.366;2023-05-07T01:48:19;13.50;99.90
17948;DHT22;9099;47.958;11.366;2023-05-07T01:50:48;13.60;99.90
17948;DHT22;9099;47.958;11.366;2023-05-07T01:53:15;13.60;99.90
17948;DHT22;9099;47.958;11.366;2023-05-07T01:55:42;13.60;99.90
17948;DHT22;9099;47.958;11.366;2023-05-07T01:58:10;13.60;99.90
17948;DHT22;9099;47.958;11.366;2023-05-07T02:00:37;13.60;99.90
17948;DHT22;9099;47.958;11.366;2023-05-07T02:03:04;13.60;99.90
17948;DHT22;9099;47.958;11.366;2023-05-07T02:05:31;13.60;99.90
17948;DHT22;9099;47.958;11.366;2023-05-07T02:07:57;13.60;99.90
17948;DHT22;9099;47.958;11.366;2023-05-07T02:10:24;13.60;99.90
17948;DHT22;9099;47.958;11.366;2023-05-07T02:12:51;13.60;99.90
17948;DHT22;9099;47.958;11.366;2023-05-07T02:15:19;13.60;99.90
17948;DHT22;9099;47.958;11.366;2023-05-07T02:17:59;13.60;99.90
17948;DHT22;9099;47.958;11.366;2023-05-07T02:20:26;13.50;99.90
17948;DHT22;9099;47.958;11.366;2023-05-07T02:22:53;13.50;99.90
17948;DHT22;9099;47.958;11.366;2023-05-07T02:25:20;13.50;99.90
17948;DHT22;9099;47.958;11.366;2023-05-07T02:27:47;13.50;99.90
17948;DHT22;9099;47.958;11.366;2023-05-07T02:30:14;13.40;99.90
17948;DHT22;9099;47.958;11.366;2023-05-07T02:32:42;13.40;99.90
17948;DHT22;9099;47.958;11.366;2023-05-07T02:35:09;13.40;99.90
17948;DHT22;9099;47.958;11.366;2023-05-07T02:37:36;13.40;99.90
17948;DHT22;9099;47.958;11.366;2023-05-07T02:40:04;13.40;99.90
17948;DHT22;9099;47.958;11.366;2023-05-07T02:42:31;13.40;99.90
17948;DHT22;9099;47.958;11.366;2023-05-07T02:44:58;13.40;99.90
17948;DHT22;9099;47.958;11.366;2023-05-07T02:47:25;13.40;99.90
17948;DHT22;9099;47.958;11.366;2023-05-07T02:49:55;13.40;99.90
17948;DHT22;9099;47.958;11.366;2023-05-07T02:52:22;13.40;99.90
17948;DHT22;9099;47.958;11.366;2023-05-07T02:54:49;13.50;99.90
17948;DHT22;9099;47.958;11.366;2023-05-07T02:57:16;13.50;99.90
17948;DHT22;9099;47.958;11.366;2023-05-07T02:59:43;13.40;99.90
17948;DHT22;9099;47.958;11.366;2023-05-07T03:02:09;13.40;99.90
17948;DHT22;9099;47.958;11.366;2023-05-07T03:04:36;13.40;99.90
17948;DHT22;9099;47.958;11.366;2023-05-07T03:07:04;13.30;99.90
17948;DHT22;9099;47.958;11.366;2023-05-07T03:09:31;13.40;99.90
17948;DHT22;9099;47.958;11.366;2023-05-07T03:11:58;13.30;99.90
17948;DHT22;9099;47.958;11.366;2023-05-07T03:14:25;13.40;99.90
17948;DHT22;9099;47.958;11.366;2023-05-07T03:16:52;13.40;99.90
17948;DHT22;9099;47.958;11.366;2023-05-07T03:19:19;13.40;99.90
17948;DHT22;9099;47.958;11.366;2023-05-07T03:21:45;13.30;99.90
17948;DHT22;9099;47.958;11.366;2023-05-07T03:24:14;13.30;99.90
17948;DHT22;9099;47.958;11.366;2023-05-07T03:26:40;13.20;99.90
17948;DHT22;9099;47.958;11.366;2023-05-07T03:29:07;13.10;99.90
17948;DHT22;9099;47.958;11.366;2023-05-07T03:31:34;13.10;99.90
17948;DHT22;9099;47.958;11.366;2023-05-07T03:34:01;13.10;99.90
17948;DHT22;9099;47.958;11.366;2023-05-07T03:36:28;13.20;99.90
17948;DHT22;9099;47.958;11.366;2023-05-07T03:38:55;13.20;99.90
17948;DHT22;9099;47.958;11.366;2023-05-07T03:41:24;13.20;99.90
17948;DHT22;9099;47.958;11.366;2023-05-07T03:43:52;13.30;99.90
17948;DHT22;9099;47.958;11.366;2023-05-07T03:46:19;13.30;99.90
17948;DHT22;9099;47.958;11.366;2023-05-07T03:48:45;13.30;99.90
17948;DHT22;9099;47.958;11.366;2023-05-07T03:51:12;13.30;99.90
17948;DHT22;9099;47.958;11.366;2023-05-07T03:53:39;13.30;99.90
17948;DHT22;9099;47.958;11.366;2023-05-07T03:56:06;13.20;99.90
17948;DHT22;9099;47.958;11.366;2023-05-07T03:58:34;13.20;99.90
17948;DHT22;9099;47.958;11.366;2023-05-07T04:01:01;13.20;99.90
17948;DHT22;9099;47.958;11.366;2023-05-07T04:03:28;13.20;99.90
17948;DHT22;9099;47.958;11.366;2023-05-07T04:05:55;13.10;99.90
17948;DHT22;9099;47.958;11.366;2023-05-07T04:08:22;13.10;99.90
17948;DHT22;9099;47.958;11.366;2023-05-07T04:10:54;13.00;99.90
17948;DHT22;9099;47.958;11.366;2023-05-07T04:13:21;12.90;99.90
17948;DHT22;9099;47.958;11.366;2023-05-07T04:15:49;12.90;99.90
17948;DHT22;9099;47.958;11.366;2023-05-07T04:18:16;12.80;99.90
17948;DHT22;9099;47.958;11.366;2023-05-07T04:20:43;12.80;99.90
17948;DHT22;9099;47.958;11.366;2023-05-07T04:23:10;12.80;99.90
17948;DHT22;9099;47.958;11.366;2023-05-07T04:25:36;12.80;99.90
17948;DHT22;9099;47.958;11.366;2023-05-07T04:28:04;12.80;99.90
17948;DHT22;9099;47.958;11.366;2023-05-07T04:30:31;12.80;99.90
17948;DHT22;9099;47.958;11.366;2023-05-07T04:32:59;12.80;99.90
17948;DHT22;9099;47.958;11.366;2023-05-07T04:35:26;12.80;99.90
17948;DHT22;9099;47.958;11.366;2023-05-07T04:37:53;12.70;99.90
17948;DHT22;9099;47.958;11.366;2023-05-07T04:40:20;12.70;99.90
17948;DHT22;9099;47.958;11.366;2023-05-07T04:42:46;12.70;99.90
17948;DHT22;9099;47.958;11.366;2023-05-07T04:45:13;12.70;99.90
17948;DHT22;9099;47.958;11.366;2023-05-07T04:47:40;12.80;99.90
17948;DHT22;9099;47.958;11.366;2023-05-07T04:50:09;12.90;99.90
17948;DHT22;9099;47.958;11.366;2023-05-07T04:52:37;13.00;99.90
17948;DHT22;9099;47.958;11.366;2023-05-07T04:55:19;13.00;99.90
17948;DHT22;9099;47.958;11.366;2023-05-07T04:57:46;13.00;99.90
17948;DHT22;9099;47.958;11.366;2023-05-07T05:00:13;13.10;99.90
17948;DHT22;9099;47.958;11.366;2023-05-07T05:02:40;13.10;99.90
17948;DHT22;9099;47.958;11.366;2023-05-07T05:05:09;13.20;99.90
17948;DHT22;9099;47.958;11.366;2023-05-07T05:07:37;13.30;99.90
17948;DHT22;9099;47.958;11.366;2023-05-07T05:10:05;13.30;99.90
17948;DHT22;9099;47.958;11.366;2023-05-07T05:12:32;13.40;99.90
17948;DHT22;9099;47.958;11.366;2023-05-07T05:14:59;13.40;99.90
17948;DHT22;9099;47.958;11.366;2023-05-07T05:17:26;13.50;99.90
17948;DHT22;9099;47.958;11.366;2023-05-07T05:19:53;13.50;99.90
17948;DHT22;9099;47.958;11.366;2023-05-07T05:22:21;13.70;99.90
17948;DHT22;9099;47.958;11.366;2023-05-07T05:24:48;13.90;99.90
17948;DHT22;9099;47.958;11.366;2023-05-07T05:27:15;14.20;99.90
17948;DHT22;9099;47.958;11.366;2023-05-07T05:29:41;14.40;99.90
17948;DHT22;9099;47.958;11.366;2023-05-07T05:32:08;14.70;99.90
17948;DHT22;9099;47.958;11.366;2023-05-07T05:34:35;15.10;99.90
17948;DHT22;9099;47.958;11.366;2023-05-07T05:37:02;15.50;99.90
17948;DHT22;9099;47.958;11.366;2023-05-07T05:39:30;15.80;99.90
17948;DHT22;9099;47.958;11.366;2023-05-07T05:41:57;16.20;99.90
17948;DHT22;9099;47.958;11.366;2023-05-07T05:44:24;16.70;99.90
17948;DHT22;9099;47.958;11.366;2023-05-07T05:46:51;17.40;99.90
17948;DHT22;9099;47.958;11.366;2023-05-07T05:49:20;17.90;99.90
17948;DHT22;9099;47.958;11.366;2023-05-07T05:51:47;18.60;99.90
17948;DHT22;9099;47.958;11.366;2023-05-07T05:54:14;19.30;99.90
17948;DHT22;9099;47.958;11.366;2023-05-07T05:56:43;20.10;99.90
17948;DHT22;9099;47.958;11.366;2023-05-07T05:59:10;20.70;99.90
17948;DHT22;9099;47.958;11.366;2023-05-07T06:01:37;21.30;99.90
17948;DHT22;9099;47.958;11.366;2023-05-07T06:04:04;21.80;99.90
17948;DHT22;9099;47.958;11.366;2023-05-07T06:06:31;22.20;99.90
17948;DHT22;9099;47.958;11.366;2023-05-07T06:08:58;22.20;99.90
17948;DHT22;9099;47.958;11.366;2023-05-07T06:11:25;22.30;99.90
17948;DHT22;9099;47.958;11.366;2023-05-07T06:13:53;22.30;99.90
17948;DHT22;9099;47.958;11.366;2023-05-07T06:16:20;22.10;99.90
17948;DHT22;9099;47.958;11.366;2023-05-07T06:18:47;21.70;99.90
17948;DHT22;9099;47.958;11.366;2023-05-07T06:21:14;21.50;99.90
17948;DHT22;9099;47.958;11.366;2023-05-07T06:23:40;21.50;99.90
17948;DHT22;9099;47.958;11.366;2023-05-07T06:26:07;21.10;99.90
17948;DHT22;9099;47.958;11.366;2023-05-07T06:28:34;20.70;99.90
17948;DHT22;9099;47.958;11.366;2023-05-07T06:31:13;20.60;99.90
17948;DHT22;9099;47.958;11.366;2023-05-07T06:33:41;20.30;99.90
17948;DHT22;9099;47.958;11.366;2023-05-07T06:36:08;20.00;99.90
17948;DHT22;9099;47.958;11.366;2023-05-07T06:38:35;19.90;99.90
17948;DHT22;9099;47.958;11.366;2023-05-07T06:41:02;19.80;99.90
17948;DHT22;9099;47.958;11.366;2023-05-07T06:43:29;19.90;99.90
17948;DHT22;9099;47.958;11.366;2023-05-07T06:45:56;19.90;99.90
17948;DHT22;9099;47.958;11.366;2023-05-07T06:48:24;19.80;99.90
17948;DHT22;9099;47.958;11.366;2023-05-07T06:50:51;19.70;99.90
17948;DHT22;9099;47.958;11.366;2023-05-07T06:53:18;19.70;99.90
17948;DHT22;9099;47.958;11.366;2023-05-07T06:55:45;19.80;99.90
17948;DHT22;9099;47.958;11.366;2023-05-07T06:58:12;19.80;99.90
17948;DHT22;9099;47.958;11.366;2023-05-07T07:00:39;19.90;99.90
17948;DHT22;9099;47.958;11.366;2023-05-07T07:03:06;19.90;99.90
17948;DHT22;9099;47.958;11.366;2023-05-07T07:05:35;19.80;99.90
17948;DHT22;9099;47.958;11.366;2023-05-07T07:08:01;19.90;99.90
17948;DHT22;9099;47.958;11.366;2023-05-07T07:10:28;20.10;99.90
17948;DHT22;9099;47.958;11.366;2023-05-07T07:12:55;20.30;99.90
17948;DHT22;9099;47.958;11.366;2023-05-07T07:15:22;20.30;99.90
17948;DHT22;9099;47.958;11.366;2023-05-07T07:17:50;20.50;99.90
17948;DHT22;9099;47.958;11.366;2023-05-07T07:20:17;20.50;99.90
17948;DHT22;9099;47.958;11.366;2023-05-07T07:22:46;20.70;99.90
17948;DHT22;9099;47.958;11.366;2023-05-07T07:25:12;20.80;99.90
17948;DHT22;9099;47.958;11.366;2023-05-07T07:27:39;20.90;99.90
17948;DHT22;9099;47.958;11.366;2023-05-07T07:30:07;21.00;99.90
17948;DHT22;9099;47.958;11.366;2023-05-07T07:32:34;21.00;99.90
17948;DHT22;9099;47.958;11.366;2023-05-07T07:35:01;21.00;99.90
17948;DHT22;9099;47.958;11.366;2023-05-07T07:37:28;21.20;99.90
17948;DHT22;9099;47.958;11.366;2023-05-07T07:39:56;21.40;99.90
17948;DHT22;9099;47.958;11.366;2023-05-07T07:42:23;21.50;99.90
17948;DHT22;9099;47.958;11.366;2023-05-07T07:44:50;21.30;99.90
17948;DHT22;9099;47.958;11.366;2023-05-07T07:47:17;21.20;99.90
17948;DHT22;9099;47.958;11.366;2023-05-07T07:49:44;21.50;99.90
17948;DHT22;9099;47.958;11.366;2023-05-07T07:52:10;21.70;99.90
17948;DHT22;9099;47.958;11.366;2023-05-07T07:54:37;21.90;99.90
17948;DHT22;9099;47.958;11.366;2023-05-07T07:57:05;22.20;99.90
17948;DHT22;9099;47.958;11.366;2023-05-07T07:59:32;22.40;99.90
17948;DHT22;9099;47.958;11.366;2023-05-07T08:01:59;22.30;99.90
17948;DHT22;9099;47.958;11.366;2023-05-07T08:04:26;22.30;99.90
17948;DHT22;9099;47.958;11.366;2023-05-07T08:06:53;22.40;99.90
17948;DHT22;9099;47.958;11.366;2023-05-07T08:09:21;22.70;99.90
17948;DHT22;9099;47.958;11.366;2023-05-07T08:11:48;23.00;99.90
17948;DHT22;9099;47.958;11.366;2023-05-07T08:14:16;23.10;99.90
17948;DHT22;9099;47.958;11.366;2023-05-07T08:16:43;23.30;99.90
17948;DHT22;9099;47.958;11.366;2023-05-07T08:19:10;23.50;99.90
17948;DHT22;9099;47.958;11.366;2023-05-07T08:21:39;23.60;99.90
17948;DHT22;9099;47.958;11.366;2023-05-07T08:24:06;23.50;99.90
17948;DHT22;9099;47.958;11.366;2023-05-07T08:26:33;23.70;99.90
17948;DHT22;9099;47.958;11.366;2023-05-07T08:29:01;24.10;99.90
17948;DHT22;9099;47.958;11.366;2023-05-07T08:31:29;24.30;99.90
17948;DHT22;9099;47.958;11.366;2023-05-07T08:33:56;24.50;99.90
17948;DHT22;9099;47.958;11.366;2023-05-07T08:36:23;24.90;99.90
17948;DHT22;9099;47.958;11.366;2023-05-07T08:38:51;24.80;99.90
17948;DHT22;9099;47.958;11.366;2023-05-07T08:41:18;24.60;99.90
17948;DHT22;9099;47.958;11.366;2023-05-07T08:43:48;24.80;99.90
17948;DHT22;9099;47.958;11.366;2023-05-07T08:46:18;24.80;99.90
17948;DHT22;9099;47.958;11.366;2023-05-07T08:48:48;24.60;99.90
17948;DHT22;9099;47.958;11.366;2023-05-07T08:51:17;24.60;99.90
17948;DHT22;9099;47.958;11.366;2023-05-07T08:53:44;24.50;99.90
17948;DHT22;9099;47.958;11.366;2023-05-07T08:56:12;24.90;99.90
17948;DHT22;9099;47.958;11.366;2023-05-07T08:58:40;25.20;99.90
17948;DHT22;9099;47.958;11.366;2023-05-07T09:01:08;25.40;99.90
17948;DHT22;9099;47.958;11.366;2023-05-07T09:03:36;25.80;99.90
17948;DHT22;9099;47.958;11.366;2023-05-07T09:06:06;26.30;99.90
17948;DHT22;9099;47.958;11.366;2023-05-07T09:08:33;26.40;99.90
17948;DHT22;9099;47.958;11.366;2023-05-07T09:11:01;26.10;99.90
17948;DHT22;9099;47.958;11.366;2023-05-07T09:13:28;25.90;99.90
17948;DHT22;9099;47.958;11.366;2023-05-07T09:15:56;25.70;99.90
17948;DHT22;9099;47.958;11.366;2023-05-07T09:18:23;26.20;99.90
17948;DHT22;9099;47.958;11.366;2023-05-07T09:20:50;26.50;99.90
17948;DHT22;9099;47.958;11.366;2023-05-07T09:23:19;27.20;99.90
17948;DHT22;9099;47.958;11.366;2023-05-07T09:25:46;27.40;99.90
17948;DHT22;9099;47.958;11.366;2023-05-07T09:28:13;27.20;99.90
17948;DHT22;9099;47.958;11.366;2023-05-07T09:30:40;27.20;99.90
17948;DHT22;9099;47.958;11.366;2023-05-07T09:33:07;27.20;99.90
17948;DHT22;9099;47.958;11.366;2023-05-07T09:35:34;27.50;99.90
17948;DHT22;9099;47.958;11.366;2023-05-07T09:38:01;27.20;99.90
17948;DHT22;9099;47.958;11.366;2023-05-07T09:40:30;27.20;99.90
17948;DHT22;9099;47.958;11.366;2023-05-07T09:43:08;27.30;99.90
17948;DHT22;9099;47.958;11.366;2023-05-07T09:45:36;27.20;99.90
17948;DHT22;9099;47.958;11.366;2023-05-07T09:48:05;27.00;99.90
17948;DHT22;9099;47.958;11.366;2023-05-07T09:50:36;26.90;99.90
17948;DHT22;9099;47.958;11.366;2023-05-07T09:53:03;26.80;99.90
17948;DHT22;9099;47.958;11.366;2023-05-07T09:55:32;26.80;99.90
17948;DHT22;9099;47.958;11.366;2023-05-07T09:57:59;26.70;99.90
17948;DHT22;9099;47.958;11.366;2023-05-07T10:00:28;26.70;99.90
17948;DHT22;9099;47.958;11.366;2023-05-07T10:02:57;27.10;99.90
17948;DHT22;9099;47.958;11.366;2023-05-07T10:05:24;27.00;99.90
17948;DHT22;9099;47.958;11.366;2023-05-07T10:07:52;26.70;99.90
17948;DHT22;9099;47.958;11.366;2023-05-07T10:10:20;26.60;99.90
17948;DHT22;9099;47.958;11.366;2023-05-07T10:12:49;26.30;99.90
17948;DHT22;9099;47.958;11.366;2023-05-07T10:15:16;26.10;99.90
17948;DHT22;9099;47.958;11.366;2023-05-07T10:17:44;25.90;99.90
17948;DHT22;9099;47.958;11.366;2023-05-07T10:20:11;25.90;99.90
17948;DHT22;9099;47.958;11.366;2023-05-07T10:22:41;26.00;99.90
17948;DHT22;9099;47.958;11.366;2023-05-07T10:25:14;26.30;99.90
17948;DHT22;9099;47.958;11.366;2023-05-07T10:27:43;26.50;99.90
17948;DHT22;9099;47.958;11.366;2023-05-07T10:30:19;26.60;99.90
17948;DHT22;9099;47.958;11.366;2023-05-07T10:32:50;26.70;99.90
17948;DHT22;9099;47.958;11.366;2023-05-07T10:35:20;26.80;99.90
17948;DHT22;9099;47.958;11.366;2023-05-07T10:37:48;26.70;99.90
17948;DHT22;9099;47.958;11.366;2023-05-07T10:40:15;26.90;99.90
17948;DHT22;9099;47.958;11.366;2023-05-07T10:42:58;27.20;99.90
17948;DHT22;9099;47.958;11.366;2023-05-07T10:45:28;27.70;99.90
17948;DHT22;9099;47.958;11.366;2023-05-07T10:48:09;27.50;99.90
17948;DHT22;9099;47.958;11.366;2023-05-07T10:50:36;27.60;99.90
17948;DHT22;9099;47.958;11.366;2023-05-07T10:53:22;28.30;99.90
17948;DHT22;9099;47.958;11.366;2023-05-07T10:58:55;27.70;99.90
17948;DHT22;9099;47.958;11.366;2023-05-07T11:01:57;27.40;99.90
17948;DHT22;9099;47.958;11.366;2023-05-07T11:04:25;28.00;99.90
17948;DHT22;9099;47.958;11.366;2023-05-07T11:07:26;28.20;99.90
17948;DHT22;9099;47.958;11.366;2023-05-07T11:09:58;28.80;99.90
17948;DHT22;9099;47.958;11.366;2023-05-07T11:12:52;29.20;99.90
17948;DHT22;9099;47.958;11.366;2023-05-07T11:15:42;29.00;99.90
17948;DHT22;9099;47.958;11.366;2023-05-07T11:18:12;28.70;99.90
17948;DHT22;9099;47.958;11.366;2023-05-07T11:20:50;28.00;99.90
17948;DHT22;9099;47.958;11.366;2023-05-07T11:26:47;27.60;99.90
17948;DHT22;9099;47.958;11.366;2023-05-07T11:29:15;27.60;99.90
17948;DHT22;9099;47.958;11.366;2023-05-07T11:31:43;27.70;99.90
17948;DHT22;9099;47.958;11.366;2023-05-07T11:34:12;28.20;99.90
17948;DHT22;9099;47.958;11.366;2023-05-07T11:36:43;28.20;99.90
17948;DHT22;9099;47.958;11.366;2023-05-07T11:39:29;28.40;99.90
17948;DHT22;9099;47.958;11.366;2023-05-07T11:41:57;28.10;99.90
17948;DHT22;9099;47.958;11.366;2023-05-07T11:44:24;28.00;99.90
17948;DHT22;9099;47.958;11.366;2023-05-07T11:46:51;28.10;99.90
17948;DHT22;9099;47.958;11.366;2023-05-07T11:49:19;28.10;99.90
17948;DHT22;9099;47.958;11.366;2023-05-07T11:51:46;27.90;99.90
17948;DHT22;9099;47.958;11.366;2023-05-07T11:54:16;28.10;99.90
17948;DHT22;9099;47.958;11.366;2023-05-07T11:56:44;28.20;99.90
17948;DHT22;9099;47.958;11.366;2023-05-07T11:59:16;28.40;99.90
17948;DHT22;9099;47.958;11.366;2023-05-07T12:01:45;28.70;99.90
17948;DHT22;9099;47.958;11.366;2023-05-07T12:04:13;28.70;99.90
17948;DHT22;9099;47.958;11.366;2023-05-07T12:06:41;28.40;99.90
17948;DHT22;9099;47.958;11.366;2023-05-07T12:09:08;28.50;99.90
17948;DHT22;9099;47.958;11.366;2023-05-07T12:11:37;28.60;99.90
17948;DHT22;9099;47.958;11.366;2023-05-07T12:14:05;28.30;99.90
17948;DHT22;9099;47.958;11.366;2023-05-07T12:16:32;28.30;99.90
17948;DHT22;9099;47.958;11.366;2023-05-07T12:18:59;27.80;99.90
17948;DHT22;9099;47.958;11.366;2023-05-07T12:21:26;27.40;99.90
17948;DHT22;9099;47.958;11.366;2023-05-07T12:23:55;27.00;99.90
17948;DHT22;9099;47.958;11.366;2023-05-07T12:26:22;27.00;99.90
17948;DHT22;9099;47.958;11.366;2023-05-07T12:28:50;27.00;99.90
17948;DHT22;9099;47.958;11.366;2023-05-07T12:31:17;27.00;99.90
17948;DHT22;9099;47.958;11.366;2023-05-07T12:33:44;27.20;99.90
17948;DHT22;9099;47.958;11.366;2023-05-07T12:36:12;27.00;99.90
17948;DHT22;9099;47.958;11.366;2023-05-07T12:38:40;26.60;99.90
17948;DHT22;9099;47.958;11.366;2023-05-07T12:41:10;26.40;99.90
17948;DHT22;9099;47.958;11.366;2023-05-07T12:43:38;26.60;99.90
17948;DHT22;9099;47.958;11.366;2023-05-07T12:46:05;26.90;99.90
17948;DHT22;9099;47.958;11.366;2023-05-07T12:48:33;27.20;99.90
17948;DHT22;9099;47.958;11.366;2023-05-07T12:51:02;27.40;99.90
17948;DHT22;9099;47.958;11.366;2023-05-07T12:53:29;28.00;99.90
17948;DHT22;9099;47.958;11.366;2023-05-07T12:55:58;28.40;99.90
17948;DHT22;9099;47.958;11.366;2023-05-07T12:58:27;28.60;99.90
17948;DHT22;9099;47.958;11.366;2023-05-07T13:00:55;28.30;99.90
17948;DHT22;9099;47.958;11.366;2023-05-07T13:03:26;27.90;99.90
17948;DHT22;9099;47.958;11.366;2023-05-07T13:05:54;27.50;99.90
17948;DHT22;9099;47.958;11.366;2023-05-07T13:08:26;26.90;99.90
17948;DHT22;9099;47.958;11.366;2023-05-07T13:10:53;26.30;99.90
17948;DHT22;9099;47.958;11.366;2023-05-07T13:13:20;25.80;99.90
17948;DHT22;9099;47.958;11.366;2023-05-07T13:15:48;25.40;99.90
17948;DHT22;9099;47.958;11.366;2023-05-07T13:18:15;25.30;99.90
17948;DHT22;9099;47.958;11.366;2023-05-07T13:20:42;25.10;99.90
17948;DHT22;9099;47.958;11.366;2023-05-07T13:23:09;24.70;99.90
17948;DHT22;9099;47.958;11.366;2023-05-07T13:25:35;24.50;99.90
17948;DHT22;9099;47.958;11.366;2023-05-07T13:28:02;24.50;99.90
17948;DHT22;9099;47.958;11.366;2023-05-07T13:30:30;24.40;99.90
17948;DHT22;9099;47.958;11.366;2023-05-07T13:32:58;24.30;99.90
17948;DHT22;9099;47.958;11.366;2023-05-07T13:35:25;24.20;99.90
17948;DHT22;9099;47.958;11.366;2023-05-07T13:37:52;24.00;99.90
17948;DHT22;9099;47.958;11.366;2023-05-07T13:40:20;23.80;99.90
17948;DHT22;9099;47.958;11.366;2023-05-07T13:42:47;23.70;99.90
17948;DHT22;9099;47.958;11.366;2023-05-07T13:45:14;23.60;99.90
17948;DHT22;9099;47.958;11.366;2023-05-07T13:47:41;23.50;99.90
17948;DHT22;9099;47.958;11.366;2023-05-07T13:50:10;23.40;99.90
17948;DHT22;9099;47.958;11.366;2023-05-07T13:52:39;23.50;99.90
17948;DHT22;9099;47.958;11.366;2023-05-07T13:55:08;23.50;99.90
17948;DHT22;9099;47.958;11.366;2023-05-07T13:57:35;23.50;99.90
17948;DHT22;9099;47.958;11.366;2023-05-07T14:00:03;23.50;99.90
17948;DHT22;9099;47.958;11.366;2023-05-07T14:02:30;23.50;99.90
17948;DHT22;9099;47.958;11.366;2023-05-07T14:04:57;23.30;99.90
17948;DHT22;9099;47.958;11.366;2023-05-07T14:07:25;23.30;99.90
17948;DHT22;9099;47.958;11.366;2023-05-07T14:09:52;23.30;99.90
17948;DHT22;9099;47.958;11.366;2023-05-07T14:12:19;23.10;99.90
17948;DHT22;9099;47.958;11.366;2023-05-07T14:14:46;23.00;99.90
17948;DHT22;9099;47.958;11.366;2023-05-07T14:17:15;22.80;99.90
17948;DHT22;9099;47.958;11.366;2023-05-07T14:19:42;22.60;99.90
17948;DHT22;9099;47.958;11.366;2023-05-07T14:22:09;22.50;99.90
17948;DHT22;9099;47.958;11.366;2023-05-07T14:24:37;22.40;99.90
17948;DHT22;9099;47.958;11.366;2023-05-07T14:27:05;22.20;99.90
17948;DHT22;9099;47.958;11.366;2023-05-07T14:29:32;22.10;99.90
17948;DHT22;9099;47.958;11.366;2023-05-07T14:32:01;21.90;99.90
17948;DHT22;9099;47.958;11.366;2023-05-07T14:34:27;21.80;99.90
17948;DHT22;9099;47.958;11.366;2023-05-07T14:36:54;21.60;99.90
17948;DHT22;9099;47.958;11.366;2023-05-07T14:39:21;21.60;99.90
17948;DHT22;9099;47.958;11.366;2023-05-07T14:41:50;21.50;99.90
17948;DHT22;9099;47.958;11.366;2023-05-07T14:44:16;21.50;99.90
17948;DHT22;9099;47.958;11.366;2023-05-07T14:46:43;21.50;99.90
17948;DHT22;9099;47.958;11.366;2023-05-07T14:49:10;21.60;99.90
17948;DHT22;9099;47.958;11.366;2023-05-07T14:51:42;21.60;99.90
17948;DHT22;9099;47.958;11.366;2023-05-07T14:54:09;21.50;99.90
17948;DHT22;9099;47.958;11.366;2023-05-07T14:56:36;21.50;99.90
17948;DHT22;9099;47.958;11.366;2023-05-07T14:59:04;21.50;99.90
17948;DHT22;9099;47.958;11.366;2023-05-07T15:01:31;21.50;99.90
17948;DHT22;9099;47.958;11.366;2023-05-07T15:03:58;21.60;99.90
17948;DHT22;9099;47.958;11.366;2023-05-07T15:06:26;21.70;99.90
17948;DHT22;9099;47.958;11.366;2023-05-07T15:08:53;21.70;99.90
17948;DHT22;9099;47.958;11.366;2023-05-07T15:11:20;21.70;99.90
17948;DHT22;9099;47.958;11.366;2023-05-07T15:13:47;21.60;99.90
17948;DHT22;9099;47.958;11.366;2023-05-07T15:16:15;21.50;99.90
17948;DHT22;9099;47.958;11.366;2023-05-07T15:18:44;21.50;99.90
17948;DHT22;9099;47.958;11.366;2023-05-07T15:21:11;21.40;99.90
17948;DHT22;9099;47.958;11.366;2023-05-07T15:23:38;21.40;99.90
17948;DHT22;9099;47.958;11.366;2023-05-07T15:26:06;21.40;99.90
17948;DHT22;9099;47.958;11.366;2023-05-07T15:28:34;21.50;99.90
17948;DHT22;9099;47.958;11.366;2023-05-07T15:31:01;21.50;99.90
17948;DHT22;9099;47.958;11.366;2023-05-07T15:33:29;21.40;99.90
17948;DHT22;9099;47.958;11.366;2023-05-07T15:35:56;21.40;99.90
17948;DHT22;9099;47.958;11.366;2023-05-07T15:38:24;21.40;99.90
17948;DHT22;9099;47.958;11.366;2023-05-07T15:40:51;21.40;99.90
17948;DHT22;9099;47.958;11.366;2023-05-07T15:43:18;21.20;99.90